createdAt,value
2022-08-04T00:00:07.399Z,0.00
2022-08-04T00:01:07.407Z,0.00
2022-08-04T00:02:07.421Z,0.00
2022-08-04T00:03:07.360Z,0.00
2022-08-04T00:04:07.355Z,0.00
2022-08-04T00:05:07.330Z,0.00
2022-08-04T00:06:07.320Z,0.00
2022-08-04T00:07:07.294Z,0.00
2022-08-04T00:08:07.314Z,0.00
2022-08-04T00:09:07.312Z,0.00
2022-08-04T00:10:07.273Z,0.00
2022-08-04T00:11:07.267Z,0.00
2022-08-04T00:12:08.320Z,0.00
2022-08-04T00:13:07.258Z,0.00
2022-08-04T00:14:07.239Z,0.00
2022-08-04T00:15:07.198Z,0.00
2022-08-04T00:16:07.186Z,0.00
2022-08-04T00:17:07.187Z,0.00
2022-08-04T00:18:07.170Z,0.00
2022-08-04T00:19:07.218Z,0.00
2022-08-04T00:20:07.147Z,0.00
2022-08-04T00:21:07.108Z,0.00
2022-08-04T00:22:07.098Z,0.00
2022-08-04T00:23:07.096Z,0.00
2022-08-04T00:24:11.490Z,0.00
2022-08-04T00:25:08.087Z,0.00
2022-08-04T00:26:07.056Z,0.00
2022-08-04T00:27:07.057Z,0.00
2022-08-04T00:28:07.026Z,0.00
2022-08-04T00:29:07.006Z,0.00
2022-08-04T00:30:07.039Z,0.00
2022-08-04T00:31:07.036Z,0.00
2022-08-04T00:32:06.975Z,0.00
2022-08-04T00:33:06.955Z,0.00
2022-08-04T00:34:06.998Z,0.00
2022-08-04T00:35:06.944Z,0.00
2022-08-04T00:36:06.946Z,0.00
2022-08-04T00:37:06.904Z,0.00
2022-08-04T00:38:06.904Z,0.00
2022-08-04T00:39:06.941Z,0.00
2022-08-04T00:40:06.904Z,0.00
2022-08-04T00:41:06.864Z,0.00
2022-08-04T00:42:06.873Z,0.00
2022-08-04T00:43:06.834Z,0.00
2022-08-04T00:44:06.843Z,0.00
2022-08-04T00:45:06.813Z,0.00
2022-08-04T00:46:15.991Z,0.00
2022-08-04T00:47:07.772Z,0.00
2022-08-04T00:48:06.781Z,0.00
2022-08-04T00:49:06.754Z,0.00
2022-08-04T00:50:06.742Z,0.00
2022-08-04T00:51:06.752Z,0.00
2022-08-04T00:52:32.053Z,0.00
2022-08-04T00:53:07.759Z,0.00
2022-08-04T00:54:06.720Z,0.00
2022-08-04T00:55:09.023Z,0.00
2022-08-04T00:56:06.741Z,0.00
2022-08-04T00:57:06.688Z,0.00
2022-08-04T00:58:07.656Z,0.00
2022-08-04T00:59:06.649Z,0.00
2022-08-04T01:00:06.670Z,0.00
2022-08-04T01:01:06.795Z,0.00
2022-08-04T01:02:06.601Z,0.00
2022-08-04T01:03:06.638Z,0.00
2022-08-04T01:04:06.588Z,0.00
2022-08-04T01:05:06.551Z,0.00
2022-08-04T01:06:06.556Z,0.00
2022-08-04T01:07:06.517Z,0.00
2022-08-04T01:08:06.524Z,0.00
2022-08-04T01:09:06.495Z,0.00
2022-08-04T01:10:06.520Z,0.00
2022-08-04T01:13:16.422Z,0.00
2022-08-04T01:14:16.422Z,0.00
2022-08-04T01:15:16.410Z,0.00
2022-08-04T01:16:19.043Z,0.00
2022-08-04T01:17:16.352Z,0.00
2022-08-04T01:18:16.413Z,0.00
2022-08-04T01:19:16.332Z,0.00
2022-08-04T01:20:16.333Z,0.00
2022-08-04T01:21:16.321Z,0.00
2022-08-04T01:22:16.343Z,0.00
2022-08-04T01:23:16.291Z,0.00
2022-08-04T01:24:16.303Z,0.00
2022-08-04T01:25:16.270Z,0.00
2022-08-04T01:26:43.348Z,0.00
2022-08-04T01:27:17.273Z,0.00
2022-08-04T01:28:16.270Z,0.00
2022-08-04T01:29:16.288Z,0.00
2022-08-04T01:30:16.219Z,0.00
2022-08-04T01:31:16.192Z,0.00
2022-08-04T01:32:16.203Z,0.00
2022-08-04T01:33:16.184Z,0.00
2022-08-04T01:34:16.180Z,0.00
2022-08-04T01:35:21.616Z,0.00
2022-08-04T01:36:17.171Z,0.00
2022-08-04T01:37:16.127Z,0.00
2022-08-04T01:38:21.098Z,0.00
2022-08-04T01:39:17.141Z,0.00
2022-08-04T01:40:16.092Z,0.00
2022-08-04T01:41:16.075Z,0.00
2022-08-04T01:42:18.756Z,0.00
2022-08-04T01:43:17.026Z,0.00
2022-08-04T01:44:16.069Z,0.00
2022-08-04T01:45:16.016Z,0.00
2022-08-04T01:46:16.001Z,0.00
2022-08-04T01:47:15.975Z,0.00
2022-08-04T01:48:15.978Z,0.00
2022-08-04T01:49:15.997Z,0.00
2022-08-04T01:50:15.967Z,0.00
2022-08-04T01:51:15.935Z,0.00
2022-08-04T01:52:15.926Z,0.00
2022-08-04T01:53:15.915Z,0.00
2022-08-04T01:54:15.968Z,0.00
2022-08-04T01:55:15.903Z,0.00
2022-08-04T01:56:15.904Z,0.00
2022-08-04T01:57:36.981Z,0.00
2022-08-04T01:58:16.883Z,0.00
2022-08-04T01:59:15.864Z,0.00
2022-08-04T02:00:15.816Z,0.00
2022-08-04T02:01:15.813Z,0.00
2022-08-04T02:02:15.854Z,0.00
2022-08-04T02:03:15.784Z,0.00
2022-08-04T02:04:19.703Z,0.00
2022-08-04T02:05:16.766Z,0.00
2022-08-04T02:06:15.792Z,0.00
2022-08-04T02:07:18.905Z,0.00
2022-08-04T02:08:15.741Z,0.00
2022-08-04T02:09:15.700Z,0.00
2022-08-04T02:10:15.690Z,0.00
2022-08-04T02:11:15.689Z,0.00
2022-08-04T02:12:16.045Z,0.00
2022-08-04T02:13:15.649Z,0.00
2022-08-04T02:14:15.640Z,0.00
2022-08-04T02:15:15.648Z,0.00
2022-08-04T02:16:15.642Z,0.00
2022-08-04T02:17:15.598Z,0.00
2022-08-04T02:18:15.590Z,0.00
2022-08-04T02:19:15.580Z,0.00
2022-08-04T02:20:15.578Z,0.00
2022-08-04T02:21:15.549Z,0.00
2022-08-04T02:22:15.532Z,0.00
2022-08-04T02:23:15.517Z,0.00
2022-08-04T02:24:15.519Z,0.00
2022-08-04T02:25:15.537Z,0.00
2022-08-04T02:26:22.069Z,0.00
2022-08-04T02:27:16.477Z,0.00
2022-08-04T02:28:15.548Z,0.00
2022-08-04T02:29:15.463Z,0.00
2022-08-04T02:30:15.435Z,0.00
2022-08-04T02:31:15.411Z,0.00
2022-08-04T02:32:15.429Z,0.00
2022-08-04T02:33:15.396Z,0.00
2022-08-04T02:34:15.405Z,0.00
2022-08-04T02:35:15.387Z,0.00
2022-08-04T02:36:15.379Z,0.00
2022-08-04T02:37:15.356Z,0.00
2022-08-04T02:38:15.323Z,0.00
2022-08-04T02:39:15.379Z,0.00
2022-08-04T02:40:15.376Z,0.00
2022-08-04T02:41:15.314Z,0.00
2022-08-04T02:42:15.282Z,0.00
2022-08-04T02:43:15.272Z,0.00
2022-08-04T02:44:15.284Z,0.00
2022-08-04T02:45:15.255Z,0.00
2022-08-04T02:46:17.821Z,0.00
2022-08-04T02:47:15.212Z,0.00
2022-08-04T02:48:30.449Z,0.00
2022-08-04T02:49:16.257Z,0.00
2022-08-04T02:50:15.201Z,0.00
2022-08-04T02:51:16.201Z,0.00
2022-08-04T02:52:15.191Z,0.00
2022-08-04T02:53:15.138Z,0.00
2022-08-04T02:54:15.122Z,0.00
2022-08-04T02:55:16.110Z,0.00
2022-08-04T02:56:15.134Z,0.00
2022-08-04T02:57:15.162Z,0.00
2022-08-04T02:58:15.134Z,0.00
2022-08-04T02:59:15.089Z,0.00
2022-08-04T03:00:15.060Z,0.00
2022-08-04T03:01:15.085Z,0.00
2022-08-04T03:02:15.049Z,0.00
2022-08-04T03:03:15.009Z,0.00
2022-08-04T03:04:24.366Z,0.00
2022-08-04T03:05:16.024Z,0.00
2022-08-04T03:06:14.979Z,0.00
2022-08-04T03:07:15.873Z,0.00
2022-08-04T03:08:14.961Z,0.00
2022-08-04T03:09:14.987Z,0.00
2022-08-04T03:10:14.918Z,0.00
2022-08-04T03:11:14.920Z,0.00
2022-08-04T03:12:14.888Z,0.00
2022-08-04T03:13:14.901Z,0.00
2022-08-04T03:14:14.905Z,0.00
2022-08-04T03:15:14.941Z,0.00
2022-08-04T03:16:14.858Z,0.00
2022-08-04T03:17:14.857Z,0.00
2022-08-04T03:18:14.854Z,0.00
2022-08-04T03:19:14.817Z,0.00
2022-08-04T03:20:14.818Z,0.00
2022-08-04T03:21:14.782Z,0.00
2022-08-04T03:22:14.793Z,0.00
2022-08-04T03:23:14.757Z,0.05
2022-08-04T03:24:19.622Z,0.10
2022-08-04T03:25:15.739Z,0.20
2022-08-04T03:26:14.706Z,0.00
2022-08-04T03:27:14.733Z,0.10
2022-08-04T03:28:14.683Z,0.57
2022-08-04T03:29:14.674Z,0.52
2022-08-04T03:30:15.685Z,1.06
2022-08-04T03:31:14.662Z,1.31
2022-08-04T03:32:14.702Z,1.28
2022-08-04T03:33:14.625Z,1.93
2022-08-04T03:34:14.649Z,2.47
2022-08-04T03:35:14.638Z,2.37
2022-08-04T03:36:15.613Z,3.11
2022-08-04T03:37:14.610Z,3.95
2022-08-04T03:38:14.562Z,4.59
2022-08-04T03:39:14.663Z,5.38
2022-08-04T03:40:14.580Z,6.25
2022-08-04T03:41:14.530Z,7.09
2022-08-04T03:42:16.149Z,7.63
2022-08-04T03:43:57.851Z,8.37
2022-08-04T03:44:15.510Z,8.99
2022-08-04T03:45:17.353Z,9.53
2022-08-04T03:46:15.462Z,9.90
2022-08-04T03:47:14.500Z,10.30
2022-08-04T03:48:14.443Z,10.60
2022-08-04T03:49:14.459Z,10.92
2022-08-04T03:50:14.421Z,11.19
2022-08-04T03:51:35.159Z,10.79
2022-08-04T03:52:15.417Z,11.26
2022-08-04T03:53:14.370Z,11.29
2022-08-04T03:54:14.359Z,10.97
2022-08-04T03:55:14.361Z,11.29
2022-08-04T03:56:14.327Z,11.24
2022-08-04T03:57:14.317Z,11.31
2022-08-04T03:58:14.306Z,11.24
2022-08-04T03:59:14.290Z,11.34
2022-08-04T04:00:14.287Z,11.16
2022-08-04T04:01:14.306Z,11.36
2022-08-04T04:02:14.369Z,11.24
2022-08-04T04:03:28.151Z,11.16
2022-08-04T04:04:15.240Z,11.04
2022-08-04T04:05:14.244Z,10.94
2022-08-04T04:06:15.015Z,11.39
2022-08-04T04:07:14.866Z,11.34
2022-08-04T04:08:18.648Z,11.29
2022-08-04T04:09:15.177Z,11.36
2022-08-04T04:10:15.144Z,11.34
2022-08-04T04:11:14.134Z,11.39
2022-08-04T04:12:14.126Z,11.39
2022-08-04T04:13:14.151Z,11.44
2022-08-04T04:14:14.103Z,10.89
2022-08-04T04:15:14.093Z,11.41
2022-08-04T04:16:14.063Z,11.49
2022-08-04T04:17:14.109Z,11.83
2022-08-04T04:18:14.054Z,12.45
2022-08-04T04:19:14.085Z,12.87
2022-08-04T04:20:14.061Z,13.21
2022-08-04T04:21:14.025Z,13.44
2022-08-04T04:22:13.992Z,13.41
2022-08-04T04:23:14.011Z,13.19
2022-08-04T04:24:13.972Z,13.34
2022-08-04T04:25:14.022Z,13.51
2022-08-04T04:26:13.941Z,13.02
2022-08-04T04:27:13.943Z,13.12
2022-08-04T04:28:45.055Z,13.31
2022-08-04T04:29:14.958Z,13.54
2022-08-04T04:30:13.952Z,13.26
2022-08-04T04:31:13.880Z,13.31
2022-08-04T04:32:13.900Z,13.44
2022-08-04T04:33:13.861Z,13.19
2022-08-04T04:34:13.858Z,13.09
2022-08-04T04:35:13.840Z,13.51
2022-08-04T04:36:13.807Z,13.63
2022-08-04T04:37:13.829Z,13.44
2022-08-04T04:38:13.781Z,13.39
2022-08-04T04:39:13.843Z,13.12
2022-08-04T04:40:13.787Z,13.14
2022-08-04T04:41:13.777Z,13.56
2022-08-04T04:42:13.757Z,13.41
2022-08-04T04:43:13.738Z,13.59
2022-08-04T04:44:13.769Z,13.36
2022-08-04T04:45:13.704Z,13.46
2022-08-04T04:46:15.281Z,13.49
2022-08-04T04:47:13.783Z,13.46
2022-08-04T04:48:13.652Z,13.34
2022-08-04T04:49:13.654Z,13.56
2022-08-04T04:50:13.657Z,13.39
2022-08-04T04:51:13.618Z,13.56
2022-08-04T04:52:13.618Z,13.24
2022-08-04T04:53:13.605Z,13.54
2022-08-04T04:54:13.595Z,13.14
2022-08-04T04:55:13.639Z,13.56
2022-08-04T04:56:13.594Z,13.39
2022-08-04T04:57:13.616Z,13.54
2022-08-04T04:58:13.567Z,13.12
2022-08-04T04:59:13.523Z,13.24
2022-08-04T05:00:13.516Z,13.46
2022-08-04T05:01:13.512Z,13.63
2022-08-04T05:02:13.522Z,13.24
2022-08-04T05:03:13.493Z,13.46
2022-08-04T05:04:13.473Z,13.51
2022-08-04T05:05:13.444Z,12.97
2022-08-04T05:06:13.454Z,12.99
2022-08-04T05:07:13.482Z,13.41
2022-08-04T05:08:45.491Z,13.49
2022-08-04T05:09:14.413Z,13.56
2022-08-04T05:10:13.393Z,13.41
2022-08-04T05:11:13.400Z,13.41
2022-08-04T05:14:32.884Z,13.39
2022-08-04T05:14:35.875Z,13.51
2022-08-04T05:14:36.803Z,13.46
2022-08-04T05:15:14.333Z,13.24
2022-08-04T05:16:13.454Z,13.12
2022-08-04T05:17:13.349Z,13.17
2022-08-04T05:18:13.295Z,13.36
2022-08-04T05:19:13.262Z,13.59
2022-08-04T05:20:13.249Z,13.56
2022-08-04T05:21:13.249Z,13.39
2022-08-04T05:22:14.797Z,12.92
2022-08-04T05:23:13.240Z,13.49
2022-08-04T05:24:13.198Z,13.36
2022-08-04T05:25:13.198Z,13.12
2022-08-04T05:26:13.240Z,13.66
2022-08-04T05:27:13.169Z,13.59
2022-08-04T05:28:13.147Z,13.39
2022-08-04T05:29:13.162Z,13.66
2022-08-04T05:30:13.177Z,12.92
2022-08-04T05:31:13.108Z,13.51
2022-08-04T05:32:13.107Z,13.54
2022-08-04T05:33:13.091Z,13.51
2022-08-04T05:34:13.111Z,13.49
2022-08-04T05:35:13.056Z,13.07
2022-08-04T05:36:18.734Z,13.36
2022-08-04T05:37:14.055Z,13.63
2022-08-04T05:38:13.046Z,13.56
2022-08-04T05:39:13.123Z,13.21
2022-08-04T05:40:13.051Z,13.34
2022-08-04T05:41:13.817Z,13.07
2022-08-04T05:42:12.967Z,13.61
2022-08-04T05:43:13.011Z,13.24
2022-08-04T05:44:13.004Z,13.54
2022-08-04T05:45:12.964Z,13.49
2022-08-04T05:46:12.933Z,13.68
2022-08-04T05:47:13.092Z,12.92
2022-08-04T05:48:12.995Z,13.21
2022-08-04T05:49:19.374Z,13.63
2022-08-04T05:50:13.887Z,13.66
2022-08-04T05:51:13.201Z,13.36
2022-08-04T05:52:12.860Z,13.61
2022-08-04T05:53:12.822Z,13.71
2022-08-04T05:54:13.002Z,13.44
2022-08-04T05:55:12.794Z,13.14
2022-08-04T05:56:13.841Z,13.56
2022-08-04T05:57:12.824Z,13.59
2022-08-04T05:58:12.760Z,13.34
2022-08-04T05:59:12.770Z,13.46
2022-08-04T06:00:38.504Z,13.59
2022-08-04T06:01:13.746Z,13.39
2022-08-04T06:02:12.751Z,13.49
2022-08-04T06:03:12.734Z,13.39
2022-08-04T06:04:12.694Z,13.71
2022-08-04T06:05:12.690Z,13.51
2022-08-04T06:06:12.658Z,13.66
2022-08-04T06:07:12.639Z,13.49
2022-08-04T06:08:13.806Z,13.41
2022-08-04T06:09:12.667Z,13.71
2022-08-04T06:10:12.629Z,13.71
2022-08-04T06:11:12.639Z,13.61
2022-08-04T06:12:12.606Z,13.56
2022-08-04T06:13:47.790Z,13.46
2022-08-04T06:14:13.567Z,13.73
2022-08-04T06:15:12.562Z,13.46
2022-08-04T06:16:26.717Z,13.76
2022-08-04T06:18:34.077Z,13.59
2022-08-04T06:18:35.171Z,13.07
2022-08-04T06:19:59.255Z,13.12
2022-08-04T06:20:20.313Z,13.68
2022-08-04T06:21:16.384Z,13.76
2022-08-04T06:22:12.475Z,13.66
2022-08-04T06:23:12.445Z,13.73
2022-08-04T06:24:12.451Z,13.12
2022-08-04T06:25:12.426Z,13.61
2022-08-04T06:26:12.414Z,13.07
2022-08-04T06:27:12.395Z,13.63
2022-08-04T06:28:12.366Z,13.49
2022-08-04T06:29:12.364Z,13.31
2022-08-04T06:30:12.356Z,13.46
2022-08-04T06:32:29.456Z,13.24
2022-08-04T06:32:30.119Z,13.78
2022-08-04T06:33:13.327Z,13.51
2022-08-04T06:34:12.348Z,13.34
2022-08-04T06:35:12.292Z,13.73
2022-08-04T06:36:12.320Z,13.61
2022-08-04T06:37:12.293Z,13.76
2022-08-04T06:38:13.261Z,13.63
2022-08-04T06:39:12.329Z,13.44
2022-08-04T06:40:31.292Z,13.31
2022-08-04T06:41:13.254Z,13.54
2022-08-04T06:42:22.400Z,13.41
2022-08-04T06:43:13.212Z,13.46
2022-08-04T06:44:12.208Z,13.56
2022-08-04T06:45:12.202Z,13.49
2022-08-04T06:46:12.171Z,13.59
2022-08-04T06:47:13.530Z,13.76
2022-08-04T06:48:12.153Z,13.78
2022-08-04T06:49:12.112Z,13.39
2022-08-04T06:51:26.315Z,13.73
2022-08-04T06:51:27.652Z,13.73
2022-08-04T06:52:13.071Z,13.14
2022-08-04T06:53:12.100Z,13.34
2022-08-04T06:54:12.061Z,13.49
2022-08-04T06:55:12.128Z,13.59
2022-08-04T06:56:12.067Z,13.51
2022-08-04T06:57:12.014Z,13.46
2022-08-04T06:58:12.019Z,13.59
2022-08-04T06:59:11.978Z,13.34
2022-08-04T07:00:11.969Z,13.71
2022-08-04T07:01:12.028Z,13.78
2022-08-04T07:02:12.002Z,13.21
2022-08-04T07:03:11.945Z,13.76
2022-08-04T07:04:11.987Z,13.59
2022-08-04T07:05:11.907Z,12.89
2022-08-04T07:06:14.310Z,13.46
2022-08-04T07:07:11.911Z,13.41
2022-08-04T07:08:11.915Z,12.97
2022-08-04T07:09:11.866Z,13.63
2022-08-04T07:10:11.846Z,13.59
2022-08-04T07:11:12.854Z,13.44
2022-08-04T07:12:11.856Z,13.68
2022-08-04T07:13:11.811Z,13.78
2022-08-04T07:14:11.785Z,13.29
2022-08-04T07:15:11.775Z,13.83
2022-08-04T07:16:11.765Z,13.78
2022-08-04T07:17:11.777Z,13.71
2022-08-04T07:18:11.768Z,13.51
2022-08-04T07:19:13.808Z,13.49
2022-08-04T07:20:12.725Z,13.76
2022-08-04T07:21:11.715Z,13.54
2022-08-04T07:22:24.524Z,13.51
2022-08-04T07:23:12.692Z,13.46
2022-08-04T07:24:11.682Z,13.68
2022-08-04T07:25:13.022Z,13.36
2022-08-04T07:26:13.430Z,13.56
2022-08-04T07:27:11.645Z,13.73
2022-08-04T07:28:11.613Z,13.73
2022-08-04T07:29:11.594Z,13.73
2022-08-04T07:30:11.623Z,13.14
2022-08-04T07:31:11.624Z,13.61
2022-08-04T07:32:12.581Z,13.02
2022-08-04T07:33:11.685Z,13.81
2022-08-04T07:34:20.602Z,13.63
2022-08-04T07:36:05.693Z,13.63
2022-08-04T07:36:12.520Z,13.54
2022-08-04T07:37:11.583Z,13.39
2022-08-04T07:38:11.480Z,13.78
2022-08-04T07:39:11.530Z,13.14
2022-08-04T07:40:12.460Z,13.76
2022-08-04T07:42:12.473Z,13.39
2022-08-04T07:43:11.462Z,12.89
2022-08-04T07:44:11.419Z,13.24
2022-08-04T07:45:11.421Z,13.34
2022-08-04T07:46:11.378Z,13.19
2022-08-04T07:47:11.377Z,13.88
2022-08-04T07:48:11.378Z,13.73
2022-08-04T07:49:11.439Z,13.39
2022-08-04T07:50:16.357Z,13.66
2022-08-04T07:51:11.308Z,13.56
2022-08-04T07:52:11.321Z,13.21
2022-08-04T07:53:53.452Z,13.51
2022-08-04T07:54:12.297Z,13.46
2022-08-04T07:55:11.281Z,13.29
2022-08-04T07:56:11.268Z,13.51
2022-08-04T07:57:18.180Z,13.46
2022-08-04T07:58:12.256Z,12.89
2022-08-04T07:59:11.227Z,13.34
2022-08-04T08:00:11.207Z,13.83
2022-08-04T08:01:11.233Z,13.54
2022-08-04T08:02:11.183Z,12.99
2022-08-04T08:03:11.174Z,13.39
2022-08-04T08:04:11.195Z,13.36
2022-08-04T08:05:11.157Z,13.54
2022-08-04T08:06:17.542Z,13.36
2022-08-04T08:07:12.117Z,13.63
2022-08-04T08:08:11.126Z,13.54
2022-08-04T08:09:13.277Z,13.68
2022-08-04T08:10:11.074Z,13.78
2022-08-04T08:11:11.181Z,13.36
2022-08-04T08:12:38.439Z,13.41
2022-08-04T08:13:12.057Z,13.68
2022-08-04T08:14:11.086Z,13.83
2022-08-04T08:15:11.005Z,13.61
2022-08-04T08:16:11.012Z,13.56
2022-08-04T08:17:10.973Z,13.88
2022-08-04T08:18:11.023Z,13.78
2022-08-04T08:19:10.955Z,13.09
2022-08-04T08:20:10.962Z,13.86
2022-08-04T08:21:10.931Z,13.51
2022-08-04T08:22:10.922Z,13.24
2022-08-04T08:23:10.904Z,13.44
2022-08-04T08:24:11.425Z,13.73
2022-08-04T08:25:10.910Z,13.44
2022-08-04T08:26:10.901Z,13.04
2022-08-04T08:27:10.880Z,13.71
2022-08-04T08:28:10.841Z,13.78
2022-08-04T08:29:10.831Z,13.29
2022-08-04T08:30:10.825Z,13.24
2022-08-04T08:31:10.811Z,13.54
2022-08-04T08:32:10.805Z,13.76
2022-08-04T08:33:10.780Z,13.54
2022-08-04T08:34:10.803Z,13.61
2022-08-04T08:35:10.750Z,13.78
2022-08-04T08:36:10.769Z,13.26
2022-08-04T08:37:10.723Z,13.73
2022-08-04T08:38:10.739Z,13.66
2022-08-04T08:39:10.737Z,13.78
2022-08-04T08:40:10.712Z,13.49
2022-08-04T08:41:10.691Z,13.61
2022-08-04T08:42:10.667Z,13.59
2022-08-04T08:44:00.514Z,13.68
2022-08-04T08:44:19.203Z,13.68
2022-08-04T08:45:11.626Z,13.46
2022-08-04T08:46:11.648Z,13.56
2022-08-04T08:47:10.597Z,13.68
2022-08-04T08:48:10.594Z,13.59
2022-08-04T08:49:10.565Z,13.36
2022-08-04T08:50:11.587Z,13.88
2022-08-04T08:51:10.545Z,13.51
2022-08-04T08:52:10.638Z,13.49
2022-08-04T08:53:10.547Z,13.71
2022-08-04T08:54:10.573Z,13.83
2022-08-04T08:55:10.529Z,13.24
2022-08-04T08:56:10.526Z,13.34
2022-08-04T08:57:10.503Z,13.81
2022-08-04T08:58:10.465Z,13.68
2022-08-04T08:59:15.122Z,13.73
2022-08-04T09:00:11.435Z,12.97
2022-08-04T09:01:10.443Z,13.78
2022-08-04T09:02:10.404Z,13.24
2022-08-04T09:03:10.432Z,13.51
2022-08-04T09:04:10.430Z,13.61
2022-08-04T09:05:11.371Z,13.54
2022-08-04T09:06:10.419Z,13.86
2022-08-04T09:07:10.374Z,13.51
2022-08-04T09:08:10.343Z,13.88
2022-08-04T09:09:10.345Z,13.56
2022-08-04T09:10:10.302Z,13.51
2022-08-04T09:11:10.313Z,13.41
2022-08-04T09:12:10.294Z,13.76
2022-08-04T09:13:10.302Z,13.56
2022-08-04T09:14:10.377Z,13.19
2022-08-04T09:15:10.258Z,13.56
2022-08-04T09:16:10.234Z,13.78
2022-08-04T09:17:10.241Z,13.91
2022-08-04T09:18:10.216Z,13.83
2022-08-04T09:19:10.220Z,13.61
2022-08-04T09:20:11.202Z,13.39
2022-08-04T09:21:10.242Z,13.78
2022-08-04T09:22:12.695Z,13.93
2022-08-04T09:23:10.208Z,13.31
2022-08-04T09:24:36.744Z,13.24
2022-08-04T09:25:11.114Z,13.56
2022-08-04T09:26:10.139Z,13.66
2022-08-04T09:27:10.138Z,13.31
2022-08-04T09:28:10.105Z,13.51
2022-08-04T09:29:10.069Z,13.54
2022-08-04T09:30:10.108Z,13.12
2022-08-04T09:31:10.071Z,13.71
2022-08-04T09:32:10.032Z,13.21
2022-08-04T09:33:10.047Z,13.36
2022-08-04T09:34:10.011Z,13.21
2022-08-04T09:35:15.450Z,13.59
2022-08-04T09:36:11.001Z,13.76
2022-08-04T09:37:10.028Z,13.26
2022-08-04T09:38:10.010Z,13.51
2022-08-04T09:39:10.046Z,13.61
2022-08-04T09:40:14.598Z,13.09
2022-08-04T09:41:20.922Z,13.88
2022-08-04T09:42:10.929Z,13.81
2022-08-04T09:43:09.910Z,13.54
2022-08-04T09:44:49.972Z,13.24
2022-08-04T09:45:13.470Z,13.36
2022-08-04T09:46:11.013Z,13.61
2022-08-04T09:47:09.875Z,13.56
2022-08-04T09:48:09.826Z,13.54
2022-08-04T09:49:09.884Z,13.61
2022-08-04T09:50:09.816Z,13.59
2022-08-04T09:51:09.805Z,13.91
2022-08-04T09:52:09.815Z,12.65
2022-08-04T09:53:09.786Z,13.76
2022-08-04T09:54:09.757Z,13.96
2022-08-04T09:55:10.774Z,13.46
2022-08-04T09:56:09.734Z,13.71
2022-08-04T09:57:09.774Z,13.36
2022-08-04T09:58:09.732Z,13.71
2022-08-04T09:59:09.723Z,13.91
2022-08-04T10:00:09.684Z,13.41
2022-08-04T10:01:09.714Z,13.39
2022-08-04T10:02:09.663Z,13.86
2022-08-04T10:03:09.708Z,13.61
2022-08-04T10:04:09.631Z,13.41
2022-08-04T10:05:09.717Z,13.96
2022-08-04T10:06:09.615Z,13.81
2022-08-04T10:07:09.625Z,13.54
2022-08-04T10:08:16.432Z,13.14
2022-08-04T10:09:10.685Z,13.56
2022-08-04T10:10:09.551Z,13.81
2022-08-04T10:11:09.560Z,13.39
2022-08-04T10:12:09.532Z,13.68
2022-08-04T10:13:09.562Z,13.86
2022-08-04T10:14:09.564Z,13.29
2022-08-04T10:15:09.480Z,13.51
2022-08-04T10:16:09.485Z,13.96
2022-08-04T10:17:09.487Z,13.59
2022-08-04T10:18:09.507Z,13.96
2022-08-04T10:19:09.459Z,13.14
2022-08-04T10:20:09.419Z,13.71
2022-08-04T10:21:15.266Z,13.78
2022-08-04T10:22:30.000Z,13.98
2022-08-04T10:23:12.363Z,13.83
2022-08-04T10:24:09.446Z,13.56
2022-08-04T10:26:03.069Z,13.09
2022-08-04T10:26:10.366Z,13.61
2022-08-04T10:27:09.346Z,13.49
2022-08-04T10:28:09.350Z,13.49
2022-08-04T10:29:09.315Z,13.71
2022-08-04T10:30:09.320Z,13.56
2022-08-04T10:31:09.309Z,13.56
2022-08-04T10:32:09.304Z,13.83
2022-08-04T10:33:09.250Z,13.78
2022-08-04T10:34:09.269Z,13.71
2022-08-04T10:35:09.238Z,13.83
2022-08-04T10:36:09.230Z,13.21
2022-08-04T10:37:09.268Z,13.44
2022-08-04T10:38:09.213Z,13.73
2022-08-04T10:39:12.002Z,13.71
2022-08-04T10:40:09.255Z,13.91
2022-08-04T10:41:09.185Z,13.19
2022-08-04T10:42:09.155Z,13.83
2022-08-04T10:43:22.441Z,13.88
2022-08-04T10:44:10.156Z,13.91
2022-08-04T10:45:09.118Z,13.86
2022-08-04T10:46:09.125Z,13.73
2022-08-04T10:47:09.154Z,13.54
2022-08-04T10:48:10.735Z,12.99
2022-08-04T10:49:09.045Z,13.34
2022-08-04T10:50:09.093Z,13.63
2022-08-04T10:51:09.048Z,13.83
2022-08-04T10:52:09.042Z,13.54
2022-08-04T10:53:09.581Z,13.54
2022-08-04T10:54:09.012Z,13.56
2022-08-04T10:55:08.988Z,13.66
2022-08-04T10:56:09.219Z,13.81
2022-08-04T10:57:09.002Z,13.21
2022-08-04T10:58:08.942Z,13.76
2022-08-04T10:59:08.993Z,13.26
2022-08-04T11:00:08.952Z,13.78
2022-08-04T11:01:08.923Z,13.39
2022-08-04T11:02:13.802Z,13.51
2022-08-04T11:03:09.930Z,13.34
2022-08-04T11:04:08.951Z,13.88
2022-08-04T11:05:08.879Z,13.61
2022-08-04T11:06:08.847Z,13.71
2022-08-04T11:07:08.877Z,13.31
2022-08-04T11:08:12.307Z,13.39
2022-08-04T11:09:11.597Z,13.56
2022-08-04T11:10:09.802Z,13.86
2022-08-04T11:11:08.793Z,13.68
2022-08-04T11:12:08.772Z,13.34
2022-08-04T11:13:21.881Z,13.41
2022-08-04T11:14:09.752Z,13.71
2022-08-04T11:15:08.756Z,13.73
2022-08-04T11:16:08.743Z,13.56
2022-08-04T11:17:08.743Z,13.81
2022-08-04T11:18:16.515Z,13.81
2022-08-04T11:19:09.682Z,13.63
2022-08-04T11:20:33.615Z,13.14
2022-08-04T11:21:09.711Z,13.29
2022-08-04T11:22:08.671Z,13.59
2022-08-04T11:23:08.646Z,13.49
2022-08-04T11:24:08.617Z,13.81
2022-08-04T11:25:08.630Z,13.91
2022-08-04T11:26:08.616Z,13.59
2022-08-04T11:27:08.650Z,13.36
2022-08-04T11:28:08.593Z,14.01
2022-08-04T11:29:08.588Z,13.41
2022-08-04T11:30:08.540Z,13.44
2022-08-04T11:31:08.551Z,13.83
2022-08-04T11:32:08.518Z,13.76
2022-08-04T11:33:08.537Z,12.97
2022-08-04T11:34:08.519Z,13.98
2022-08-04T11:35:08.487Z,13.51
2022-08-04T11:36:08.476Z,13.83
2022-08-04T11:37:14.012Z,13.88
2022-08-04T11:38:09.469Z,13.96
2022-08-04T11:39:08.554Z,13.36
2022-08-04T11:40:08.463Z,13.98
2022-08-04T11:41:08.440Z,13.73
2022-08-04T11:42:08.476Z,13.41
2022-08-04T11:43:08.424Z,13.56
2022-08-04T11:44:12.606Z,13.56
2022-08-04T11:45:08.396Z,13.63
2022-08-04T11:46:08.355Z,13.66
2022-08-04T11:47:08.355Z,13.96
2022-08-04T11:48:08.316Z,13.34
2022-08-04T11:49:08.354Z,13.81
2022-08-04T11:50:08.354Z,13.29
2022-08-04T11:51:08.298Z,13.49
2022-08-04T11:52:08.314Z,13.76
2022-08-04T11:53:08.304Z,13.66
2022-08-04T11:54:08.250Z,13.86
2022-08-04T11:55:08.248Z,13.73
2022-08-04T11:56:11.071Z,13.93
2022-08-04T11:57:08.253Z,13.21
2022-08-04T11:58:08.195Z,13.88
2022-08-04T11:59:08.195Z,13.68
2022-08-04T12:00:08.210Z,13.78
2022-08-04T12:01:08.178Z,13.61
2022-08-04T12:02:08.219Z,13.63
2022-08-04T12:03:08.178Z,13.36
2022-08-04T12:04:08.113Z,13.96
2022-08-04T12:05:08.151Z,13.96
2022-08-04T12:06:08.092Z,13.39
2022-08-04T12:08:09.106Z,13.78
2022-08-04T12:09:08.071Z,13.56
2022-08-04T12:10:08.084Z,13.63
2022-08-04T12:11:08.052Z,13.59
2022-08-04T12:12:08.033Z,13.78
2022-08-04T12:13:08.021Z,13.63
2022-08-04T12:14:08.054Z,13.71
2022-08-04T12:15:08.000Z,13.66
2022-08-04T12:16:07.971Z,13.83
2022-08-04T12:17:07.996Z,13.41
2022-08-04T12:18:07.976Z,13.26
2022-08-04T12:19:07.940Z,13.73
2022-08-04T12:20:31.653Z,13.98
2022-08-04T12:21:08.910Z,13.78
2022-08-04T12:22:07.953Z,13.31
2022-08-04T12:23:07.923Z,13.49
2022-08-04T12:24:07.918Z,13.96
2022-08-04T12:25:08.258Z,13.61
2022-08-04T12:26:07.867Z,13.73
2022-08-04T12:27:07.842Z,13.76
2022-08-04T12:28:07.926Z,13.49
2022-08-04T12:29:10.033Z,13.49
2022-08-04T12:30:59.157Z,13.09
2022-08-04T12:31:11.601Z,13.73
2022-08-04T12:32:07.778Z,13.83
2022-08-04T12:33:07.812Z,13.59
2022-08-04T12:34:07.839Z,13.78
2022-08-04T12:35:07.740Z,13.46
2022-08-04T12:36:11.569Z,13.51
2022-08-04T12:37:07.734Z,13.76
2022-08-04T12:38:07.716Z,13.78
2022-08-04T12:39:07.746Z,13.61
2022-08-04T12:40:27.857Z,13.86
2022-08-04T12:41:08.702Z,13.88
2022-08-04T12:42:07.656Z,13.04
2022-08-04T12:43:07.647Z,13.49
2022-08-04T12:44:07.628Z,13.98
2022-08-04T12:45:08.636Z,13.61
2022-08-04T12:46:07.613Z,13.63
2022-08-04T12:47:26.466Z,13.51
2022-08-04T12:48:08.628Z,13.71
2022-08-04T12:49:07.565Z,13.73
2022-08-04T12:50:07.789Z,13.73
2022-08-04T12:51:07.557Z,13.59
2022-08-04T12:52:09.592Z,13.63
2022-08-04T12:53:07.590Z,13.66
2022-08-04T12:54:07.504Z,13.71
2022-08-04T12:55:07.499Z,13.41
2022-08-04T12:56:07.535Z,13.59
2022-08-04T12:57:07.486Z,13.68
2022-08-04T12:58:07.475Z,13.81
2022-08-04T12:59:07.462Z,13.59
2022-08-04T13:00:08.446Z,17.83
2022-08-04T13:02:08.821Z,18.08
2022-08-04T13:02:11.968Z,18.15
2022-08-04T13:03:09.809Z,18.25